Time;durP1;ratioP1;P1;durP2;ratioP2;P2;SDS_P1;SDS_P2;PMS_P1;PMS_P2;Temp;Humidity;BMP_temperature;BMP_pressure;BME280_temperature;BME280_humidity;BME280_pressure;Samples;Min_cycle;Max_cycle;Signal;HPM_P1;HPM_P2
2023/07/30 00:01:15;;;;;;;6.60;3.17;;;19.80;99.90;;;;;;4969162;28;20027;-73
2023/07/30 00:03:42;;;;;;;6.15;3.92;;;19.80;99.90;;;;;;4967816;28;20031;-73
2023/07/30 00:06:08;;;;;;;4.82;3.20;;;19.70;99.90;;;;;;4969859;28;20034;-74
2023/07/30 00:08:33;;;;;;;5.55;3.17;;;19.70;99.90;;;;;;4970926;28;20030;-74
2023/07/30 00:10:59;;;;;;;4.40;3.08;;;19.70;99.90;;;;;;4969498;28;20030;-74
2023/07/30 00:13:25;;;;;;;5.57;3.40;;;19.70;99.90;;;;;;4967000;28;20485;-74
2023/07/30 00:15:51;;;;;;;6.68;3.90;;;19.70;99.90;;;;;;4966543;28;20429;-73
2023/07/30 00:18:17;;;;;;;6.97;3.30;;;19.60;99.90;;;;;;4965402;28;20023;-73
2023/07/30 00:20:43;;;;;;;4.50;3.50;;;19.60;99.90;;;;;;4966546;28;20035;-74
2023/07/30 00:23:09;;;;;;;4.72;3.30;;;19.60;99.90;;;;;;4970104;28;20031;-73
2023/07/30 00:25:34;;;;;;;5.57;3.67;;;19.60;99.90;;;;;;4970431;28;20068;-74
2023/07/30 00:28:00;;;;;;;5.40;3.55;;;19.60;99.90;;;;;;4967854;28;20081;-73
2023/07/30 00:30:25;;;;;;;6.50;3.28;;;19.60;99.90;;;;;;4966722;28;20096;-74
2023/07/30 00:32:51;;;;;;;6.15;3.47;;;19.60;99.90;;;;;;4979378;28;20358;-74
2023/07/30 00:35:17;;;;;;;6.80;3.40;;;19.60;99.90;;;;;;4968653;28;20030;-74
2023/07/30 00:37:42;;;;;;;5.05;3.10;;;19.60;99.90;;;;;;4965787;28;20037;-74
2023/07/30 00:40:08;;;;;;;7.03;3.08;;;19.60;99.90;;;;;;4968264;28;21318;-74
2023/07/30 00:42:34;;;;;;;3.92;3.00;;;19.60;99.90;;;;;;4969460;28;20153;-75
2023/07/30 00:45:00;;;;;;;3.97;3.10;;;19.60;99.90;;;;;;4969176;28;20528;-74
2023/07/30 00:47:26;;;;;;;5.07;3.22;;;19.60;99.90;;;;;;4968259;28;20033;-72
2023/07/30 00:49:52;;;;;;;4.95;2.97;;;19.60;99.90;;;;;;4967397;28;20029;-74
2023/07/30 00:52:20;;;;;;;2.95;2.22;;;19.50;99.90;;;;;;4972339;28;20046;-75
2023/07/30 00:54:46;;;;;;;5.22;3.03;;;19.50;99.90;;;;;;4966834;28;20027;-74
2023/07/30 00:57:12;;;;;;;3.80;2.78;;;19.50;99.90;;;;;;4965151;28;20497;-74
2023/07/30 00:59:38;;;;;;;3.35;2.50;;;19.50;99.90;;;;;;4968235;28;20047;-74
2023/07/30 01:02:04;;;;;;;4.57;2.80;;;19.50;99.90;;;;;;4965908;28;20474;-74
2023/07/30 01:04:30;;;;;;;4.32;2.53;;;19.50;99.90;;;;;;4963825;28;20587;-75
2023/07/30 01:06:56;;;;;;;3.80;2.72;;;19.60;99.90;;;;;;4964474;28;20038;-74
2023/07/30 01:09:22;;;;;;;4.63;3.03;;;19.60;99.90;;;;;;4967411;28;20502;-74
2023/07/30 01:11:48;;;;;;;5.07;2.83;;;19.60;99.90;;;;;;4969013;28;20022;-74
2023/07/30 01:14:15;;;;;;;8.65;2.85;;;19.60;99.90;;;;;;4969278;28;20027;-74
2023/07/30 01:16:42;;;;;;;4.15;2.40;;;19.60;99.90;;;;;;4967700;28;20030;-74
2023/07/30 01:19:07;;;;;;;3.08;2.25;;;19.60;99.90;;;;;;4967447;28;20046;-74
2023/07/30 01:21:34;;;;;;;4.93;2.50;;;19.50;99.90;;;;;;4969570;28;20473;-74
2023/07/30 01:24:00;;;;;;;4.32;2.47;;;19.50;99.90;;;;;;4966720;28;20039;-74
2023/07/30 01:26:34;;;;;;;4.70;2.42;;;19.50;99.90;;;;;;4968615;28;20389;-74
2023/07/30 01:29:03;;;;;;;4.60;2.20;;;19.50;99.90;;;;;;4967533;28;20027;-74
2023/07/30 01:31:30;;;;;;;4.03;2.20;;;19.50;99.90;;;;;;4969591;28;20019;-74
2023/07/30 01:33:56;;;;;;;3.85;2.40;;;19.40;99.90;;;;;;4966935;28;20102;-73
2023/07/30 01:36:22;;;;;;;3.40;2.17;;;19.40;99.90;;;;;;4964692;28;20036;-73
2023/07/30 01:38:50;;;;;;;3.08;2.05;;;19.40;99.90;;;;;;4969624;28;20033;-73
2023/07/30 01:41:16;;;;;;;3.85;2.20;;;19.40;99.90;;;;;;4968341;28;20165;-73
2023/07/30 01:43:41;;;;;;;3.05;1.98;;;19.40;99.90;;;;;;4967526;28;20030;-73
2023/07/30 01:46:07;;;;;;;2.35;1.70;;;19.30;99.90;;;;;;4968099;28;20089;-73
2023/07/30 01:48:32;;;;;;;2.65;1.73;;;19.30;99.90;;;;;;4964472;28;20085;-74
2023/07/30 01:50:58;;;;;;;3.20;2.17;;;19.30;99.90;;;;;;4967274;28;20019;-74
2023/07/30 01:53:24;;;;;;;4.50;2.10;;;19.30;99.90;;;;;;4963270;28;20038;-74
2023/07/30 01:55:49;;;;;;;3.50;1.70;;;19.20;99.90;;;;;;4967983;28;20035;-74
2023/07/30 01:58:15;;;;;;;3.90;2.20;;;19.20;99.90;;;;;;4966278;28;20038;-74
2023/07/30 02:00:41;;;;;;;3.15;2.00;;;19.20;99.90;;;;;;4964240;28;20123;-74
2023/07/30 02:03:06;;;;;;;8.07;2.20;;;19.10;99.90;;;;;;4961807;28;20482;-74
2023/07/30 02:05:33;;;;;;;3.30;1.85;;;19.10;99.90;;;;;;4961644;28;20050;-74
2023/07/30 02:07:58;;;;;;;2.80;1.75;;;19.10;99.90;;;;;;4966702;28;20030;-74
2023/07/30 02:10:25;;;;;;;3.95;2.30;;;19.00;99.90;;;;;;4964703;28;20152;-74
2023/07/30 02:12:51;;;;;;;2.88;1.85;;;19.00;99.90;;;;;;4965439;28;20119;-73
2023/07/30 02:15:17;;;;;;;4.45;2.13;;;18.90;99.90;;;;;;4971793;28;20026;-75
2023/07/30 02:17:42;;;;;;;2.83;2.13;;;18.90;99.90;;;;;;4968876;28;20496;-75
2023/07/30 02:20:09;;;;;;;2.92;1.90;;;18.80;99.90;;;;;;4970507;28;20081;-73
2023/07/30 02:22:34;;;;;;;2.92;2.60;;;18.90;99.90;;;;;;4968558;28;20033;-73
2023/07/30 02:25:00;;;;;;;3.67;2.03;;;18.90;99.90;;;;;;4966139;28;20023;-73
2023/07/30 02:27:26;;;;;;;7.53;3.13;;;18.90;99.90;;;;;;4968366;28;20093;-73
2023/07/30 02:29:51;;;;;;;2.90;2.05;;;18.90;99.90;;;;;;4965625;28;20115;-73
2023/07/30 02:32:17;;;;;;;3.40;1.92;;;18.90;99.90;;;;;;4966740;28;20027;-73
2023/07/30 02:34:42;;;;;;;3.20;2.38;;;18.90;99.90;;;;;;4961616;28;20157;-73
2023/07/30 02:37:08;;;;;;;2.60;1.83;;;18.90;99.90;;;;;;4964257;28;20029;-73
2023/07/30 02:39:33;;;;;;;3.53;2.15;;;18.80;99.90;;;;;;4968120;28;20029;-72
2023/07/30 02:41:59;;;;;;;3.60;2.53;;;18.80;99.90;;;;;;4967127;28;20035;-74
2023/07/30 02:44:24;;;;;;;3.60;2.00;;;18.80;99.90;;;;;;4999106;23;20108;-84
2023/07/30 02:46:50;;;;;;;3.20;2.40;;;18.70;99.90;;;;;;5014404;28;20052;-81
2023/07/30 02:49:16;;;;;;;4.88;2.40;;;18.70;99.90;;;;;;5014716;28;20070;-81
2023/07/30 02:51:43;;;;;;;4.70;2.30;;;18.60;99.90;;;;;;5013014;28;20062;-85
2023/07/30 02:54:09;;;;;;;4.57;2.20;;;18.60;99.90;;;;;;5010599;28;20026;-83
2023/07/30 02:56:35;;;;;;;2.95;2.17;;;18.60;99.90;;;;;;5015881;28;20040;-83
2023/07/30 02:59:01;;;;;;;7.13;2.88;;;18.60;99.90;;;;;;5015169;28;20134;-83
2023/07/30 03:01:27;;;;;;;4.38;2.75;;;18.50;99.90;;;;;;5013379;28;20037;-83
2023/07/30 03:03:52;;;;;;;4.53;2.35;;;18.50;99.90;;;;;;5013426;28;20026;-83
2023/07/30 03:06:18;;;;;;;4.32;2.83;;;18.40;99.90;;;;;;5015791;28;20026;-84
2023/07/30 03:08:43;;;;;;;3.75;2.65;;;18.40;99.90;;;;;;5011368;28;20034;-84
2023/07/30 03:11:09;;;;;;;3.65;2.58;;;18.40;99.90;;;;;;5015017;28;20062;-82
2023/07/30 03:13:35;;;;;;;4.38;2.55;;;18.40;99.90;;;;;;5014157;28;20026;-83
2023/07/30 03:16:00;;;;;;;4.18;2.38;;;18.40;99.90;;;;;;5016458;28;20045;-83
2023/07/30 03:18:26;;;;;;;3.58;2.42;;;18.30;99.90;;;;;;5016675;28;20137;-82
2023/07/30 03:20:56;;;;;;;4.50;2.40;;;18.30;99.90;;;;;;5016050;28;20040;-83
2023/07/30 03:23:22;;;;;;;3.97;2.65;;;18.30;99.90;;;;;;5018422;28;20462;-85
2023/07/30 03:25:47;;;;;;;6.50;2.65;;;18.30;99.90;;;;;;5012512;28;20018;-85
2023/07/30 03:28:13;;;;;;;4.28;2.60;;;18.30;99.90;;;;;;5029818;28;20112;-84
2023/07/30 03:30:39;;;;;;;4.28;3.10;;;18.30;99.90;;;;;;5016701;28;20030;-84
2023/07/30 03:33:04;;;;;;;3.70;2.72;;;18.30;99.90;;;;;;5018544;28;20126;-84
2023/07/30 03:35:30;;;;;;;4.57;2.90;;;18.30;99.90;;;;;;5016717;28;20532;-85
2023/07/30 03:37:55;;;;;;;3.55;2.30;;;18.30;99.90;;;;;;5022099;28;20041;-83
2023/07/30 03:40:21;;;;;;;4.47;2.72;;;18.30;99.90;;;;;;5019821;28;20045;-83
2023/07/30 03:42:46;;;;;;;4.70;2.40;;;18.20;99.90;;;;;;5020459;28;20034;-85
2023/07/30 03:45:12;;;;;;;3.95;2.42;;;18.30;99.90;;;;;;5016566;28;20045;-84
2023/07/30 03:47:37;;;;;;;3.17;2.42;;;18.30;99.90;;;;;;5020985;28;20037;-85
2023/07/30 03:50:03;;;;;;;3.20;2.30;;;18.30;99.90;;;;;;5021122;28;20041;-85
2023/07/30 03:52:29;;;;;;;6.50;2.80;;;18.30;99.90;;;;;;5019254;28;20026;-85
2023/07/30 03:54:54;;;;;;;4.13;2.40;;;18.30;99.90;;;;;;5016642;28;20025;-85
2023/07/30 03:57:20;;;;;;;4.20;2.40;;;18.30;99.90;;;;;;5022343;28;20045;-85
2023/07/30 03:59:45;;;;;;;3.70;1.92;;;18.40;99.90;;;;;;5019560;28;20030;-84
2023/07/30 04:02:15;;;;;;;3.35;2.08;;;18.40;99.90;;;;;;5027779;28;20601;-83
2023/07/30 04:04:44;;;;;;;3.75;1.92;;;18.40;99.90;;;;;;5029537;28;20033;-84
2023/07/30 04:07:10;;;;;;;2.80;2.00;;;18.40;99.90;;;;;;5031973;28;20030;-84
2023/07/30 04:09:36;;;;;;;3.75;2.15;;;18.40;99.90;;;;;;5023628;28;20041;-83
2023/07/30 04:12:02;;;;;;;4.47;2.70;;;18.50;99.90;;;;;;5022115;28;20033;-83
2023/07/30 04:14:27;;;;;;;5.95;2.80;;;18.50;99.90;;;;;;5016844;28;20506;-84
2023/07/30 04:16:53;;;;;;;2.55;1.85;;;18.50;99.90;;;;;;5023469;28;20136;-83
2023/07/30 04:19:19;;;;;;;3.45;2.38;;;18.50;99.90;;;;;;5023006;28;20123;-84
2023/07/30 04:21:45;;;;;;;3.08;1.90;;;18.50;99.90;;;;;;5026655;28;20045;-85
2023/07/30 04:24:10;;;;;;;4.05;1.90;;;18.50;99.90;;;;;;5025976;28;20030;-83
2023/07/30 04:26:36;;;;;;;3.13;2.00;;;18.60;99.90;;;;;;5034025;28;20027;-84
2023/07/30 04:29:01;;;;;;;5.47;2.55;;;18.60;99.90;;;;;;5022091;28;20022;-83
2023/07/30 04:31:27;;;;;;;4.88;2.75;;;18.60;99.90;;;;;;5019622;28;20053;-82
2023/07/30 04:33:53;;;;;;;2.53;2.08;;;18.60;99.90;;;;;;5017869;28;20952;-82
2023/07/30 04:36:18;;;;;;;4.05;2.55;;;18.70;99.90;;;;;;5017011;28;20026;-83
2023/07/30 04:38:44;;;;;;;4.20;2.08;;;18.70;99.90;;;;;;5018767;28;20101;-82
2023/07/30 04:41:09;;;;;;;4.47;3.08;;;18.70;99.90;;;;;;5016546;28;20101;-83
2023/07/30 04:43:35;;;;;;;2.92;2.08;;;18.70;99.90;;;;;;5016336;28;20042;-82
2023/07/30 04:46:01;;;;;;;3.33;2.30;;;18.70;99.90;;;;;;5023202;28;20117;-82
2023/07/30 04:48:26;;;;;;;4.25;2.17;;;18.70;99.90;;;;;;5014666;28;20030;-82
2023/07/30 04:50:52;;;;;;;8.40;2.13;;;18.70;99.90;;;;;;5012579;28;20099;-82
2023/07/30 04:53:18;;;;;;;4.75;2.28;;;18.70;99.90;;;;;;5012735;28;20025;-82
2023/07/30 04:55:44;;;;;;;3.13;1.95;;;18.60;99.90;;;;;;5014257;28;20030;-81
2023/07/30 04:58:09;;;;;;;2.92;2.15;;;18.70;99.90;;;;;;5008873;28;20494;-81
2023/07/30 05:00:35;;;;;;;5.40;2.50;;;18.60;99.90;;;;;;5008198;28;20033;-82
2023/07/30 05:03:00;;;;;;;4.90;2.53;;;18.60;99.90;;;;;;5014733;28;20018;-82
2023/07/30 05:05:26;;;;;;;5.65;2.40;;;18.60;99.90;;;;;;5011009;28;20108;-81
2023/07/30 05:07:51;;;;;;;4.05;2.42;;;18.70;99.90;;;;;;5006109;28;20413;-81
2023/07/30 05:10:18;;;;;;;4.53;2.10;;;18.70;99.90;;;;;;5012906;28;20045;-84
2023/07/30 05:12:43;;;;;;;3.95;2.30;;;18.70;99.90;;;;;;5010785;28;20101;-84
2023/07/30 05:15:09;;;;;;;3.65;2.28;;;18.70;99.90;;;;;;5006421;28;20134;-83
2023/07/30 05:17:34;;;;;;;7.07;2.58;;;18.80;99.90;;;;;;5009053;28;20030;-84
2023/07/30 05:20:00;;;;;;;5.32;2.20;;;18.80;99.90;;;;;;5014204;28;20026;-84
2023/07/30 05:22:26;;;;;;;2.58;1.70;;;18.90;99.90;;;;;;5010345;28;20033;-83
2023/07/30 05:24:51;;;;;;;3.58;1.92;;;18.90;99.90;;;;;;5009856;28;20072;-84
2023/07/30 05:27:17;;;;;;;3.00;1.85;;;19.00;99.90;;;;;;5010595;28;20077;-83
2023/07/30 05:29:42;;;;;;;2.72;1.88;;;19.00;99.90;;;;;;5009742;28;20026;-83
2023/07/30 05:32:09;;;;;;;2.63;1.73;;;19.10;99.90;;;;;;5008316;28;20443;-84
2023/07/30 05:34:34;;;;;;;4.00;1.50;;;19.10;99.90;;;;;;5007434;28;20030;-83
2023/07/30 05:37:01;;;;;;;3.90;1.92;;;19.10;99.90;;;;;;5003671;28;20423;-83
2023/07/30 05:39:26;;;;;;;5.32;1.90;;;19.20;99.90;;;;;;5008984;28;20096;-84
2023/07/30 05:41:52;;;;;;;3.47;1.83;;;19.20;99.90;;;;;;5012629;28;20026;-83
2023/07/30 05:44:17;;;;;;;2.72;1.60;;;19.30;99.90;;;;;;5029677;28;20025;-84
2023/07/30 05:46:43;;;;;;;3.20;2.25;;;19.30;99.90;;;;;;5030825;28;20096;-84
2023/07/30 05:49:09;;;;;;;2.90;1.90;;;19.40;99.90;;;;;;5030196;28;20010;-83
2023/07/30 05:51:34;;;;;;;1.90;1.55;;;19.40;99.90;;;;;;5026658;28;20034;-83
2023/07/30 05:54:00;;;;;;;2.85;1.65;;;19.40;99.90;;;;;;5012831;28;20034;-83
2023/07/30 05:56:25;;;;;;;4.28;1.88;;;19.40;99.90;;;;;;5013296;28;20637;-85
2023/07/30 05:58:51;;;;;;;3.22;2.13;;;19.50;99.90;;;;;;5015159;28;20035;-82
2023/07/30 06:01:17;;;;;;;3.72;1.88;;;19.50;99.90;;;;;;5012036;28;20022;-83
2023/07/30 06:03:42;;;;;;;2.67;1.52;;;19.60;99.90;;;;;;5013020;28;20390;-84
2023/07/30 06:06:08;;;;;;;3.15;1.80;;;19.60;99.90;;;;;;5014472;28;20030;-83
2023/07/30 06:08:34;;;;;;;3.80;2.08;;;19.70;99.90;;;;;;5012357;28;20037;-84
2023/07/30 06:11:03;;;;;;;1.83;1.42;;;19.80;99.90;;;;;;5010727;28;20125;-86
2023/07/30 06:13:29;;;;;;;5.20;2.17;;;19.80;99.90;;;;;;5009574;28;20026;-87
2023/07/30 06:15:55;;;;;;;3.35;1.60;;;19.90;99.90;;;;;;5013382;28;20556;-85
2023/07/30 06:18:21;;;;;;;2.65;1.65;;;20.00;99.90;;;;;;5012148;28;20041;-84
2023/07/30 06:20:46;;;;;;;2.72;1.40;;;20.00;99.90;;;;;;5011779;28;20092;-83
2023/07/30 06:23:12;;;;;;;2.78;1.60;;;20.00;99.90;;;;;;5011575;28;20712;-84
2023/07/30 06:25:38;;;;;;;4.25;1.50;;;20.10;99.90;;;;;;5011770;28;20597;-84
2023/07/30 06:28:05;;;;;;;2.60;1.60;;;20.10;99.90;;;;;;5012434;28;20022;-84
2023/07/30 06:30:32;;;;;;;3.33;1.98;;;20.10;99.90;;;;;;5015819;28;20402;-84
2023/07/30 06:32:58;;;;;;;2.45;1.80;;;20.10;99.90;;;;;;5007399;28;20356;-85
2023/07/30 06:35:24;;;;;;;2.22;1.83;;;20.20;99.90;;;;;;5009785;28;20033;-83
2023/07/30 06:37:50;;;;;;;2.40;1.60;;;20.20;99.90;;;;;;5014554;28;20108;-84
2023/07/30 06:40:16;;;;;;;3.92;1.65;;;20.20;99.90;;;;;;5013406;28;20022;-82
2023/07/30 06:42:42;;;;;;;1.75;1.40;;;20.30;99.90;;;;;;5018716;28;20041;-82
2023/07/30 06:45:08;;;;;;;2.28;1.40;;;20.30;99.90;;;;;;5012244;28;20068;-82
2023/07/30 06:47:34;;;;;;;3.88;1.50;;;20.20;99.90;;;;;;5013316;28;20093;-82
2023/07/30 06:50:00;;;;;;;2.83;1.75;;;20.20;99.90;;;;;;5012781;28;20061;-83
2023/07/30 06:52:25;;;;;;;1.70;1.40;;;20.20;99.90;;;;;;5017968;28;20018;-83
2023/07/30 06:54:51;;;;;;;3.67;1.70;;;20.30;99.90;;;;;;5021793;28;20038;-84
2023/07/30 06:57:17;;;;;;;2.28;1.63;;;20.40;99.90;;;;;;5021772;28;20026;-83
2023/07/30 06:59:42;;;;;;;2.75;1.52;;;20.50;99.90;;;;;;5014034;28;20029;-84
2023/07/30 07:02:08;;;;;;;3.78;1.83;;;20.60;99.90;;;;;;5017658;28;20037;-83
2023/07/30 07:04:34;;;;;;;2.65;1.67;;;20.70;99.90;;;;;;5018324;28;20139;-84
2023/07/30 07:07:03;;;;;;;2.40;1.42;;;20.80;99.90;;;;;;5014903;28;20493;-84
2023/07/30 07:09:29;;;;;;;2.92;1.55;;;20.80;99.90;;;;;;5026090;28;20030;-83
2023/07/30 07:11:55;;;;;;;2.38;1.27;;;20.90;99.90;;;;;;5022510;28;20041;-84
2023/07/30 07:14:22;;;;;;;1.63;1.20;;;20.90;99.90;;;;;;5022372;28;20022;-83
2023/07/30 07:16:48;;;;;;;2.15;1.33;;;21.00;99.90;;;;;;5026174;28;20041;-84
2023/07/30 07:19:15;;;;;;;1.85;1.10;;;21.00;99.90;;;;;;5025682;28;20041;-84
2023/07/30 07:21:41;;;;;;;2.13;1.05;;;21.00;99.90;;;;;;5029045;28;20026;-82
2023/07/30 07:24:09;;;;;;;2.97;1.27;;;21.10;99.90;;;;;;5020827;28;20038;-82
2023/07/30 07:26:35;;;;;;;2.78;1.58;;;21.10;99.90;;;;;;5033618;28;20049;-84
2023/07/30 07:29:01;;;;;;;2.20;1.25;;;21.10;99.90;;;;;;5023911;28;20018;-82
2023/07/30 07:31:27;;;;;;;1.83;1.35;;;21.20;99.90;;;;;;5020862;28;20065;-83
2023/07/30 07:33:53;;;;;;;2.03;1.27;;;21.20;99.90;;;;;;5021048;28;20080;-82
2023/07/30 07:36:20;;;;;;;2.13;1.48;;;21.20;99.90;;;;;;5024308;28;20029;-83
2023/07/30 07:38:46;;;;;;;2.13;1.20;;;21.30;99.90;;;;;;5018482;28;20036;-85
2023/07/30 07:41:16;;;;;;;1.40;1.20;;;21.40;99.90;;;;;;5025373;28;20120;-84
2023/07/30 07:43:46;;;;;;;2.75;1.55;;;21.40;99.90;;;;;;5017488;28;20570;-85
2023/07/30 07:46:15;;;;;;;1.80;1.20;;;21.40;99.90;;;;;;5018858;28;20030;-83
2023/07/30 07:48:41;;;;;;;1.52;1.20;;;21.40;99.90;;;;;;5020605;28;20026;-84
2023/07/30 07:51:08;;;;;;;1.95;1.27;;;21.30;99.90;;;;;;5022478;28;20026;-83
2023/07/30 07:53:34;;;;;;;3.60;1.38;;;21.20;99.90;;;;;;5018171;28;20066;-84
2023/07/30 07:56:00;;;;;;;5.97;2.17;;;20.80;99.90;;;;;;5021067;28;20314;-82
2023/07/30 07:58:25;;;;;;;3.88;1.48;;;20.70;99.90;;;;;;5021180;28;20099;-83
2023/07/30 08:00:55;;;;;;;2.95;1.90;;;20.40;99.90;;;;;;5029270;28;20028;-84
2023/07/30 08:03:21;;;;;;;3.63;2.13;;;20.30;99.90;;;;;;5017514;28;20081;-83
2023/07/30 08:05:47;;;;;;;2.88;1.77;;;20.20;99.90;;;;;;5017659;28;20036;-86
2023/07/30 08:08:13;;;;;;;2.58;1.50;;;20.10;99.90;;;;;;5026376;28;20360;-85
2023/07/30 08:10:42;;;;;;;3.13;1.45;;;20.00;99.90;;;;;;5026533;28;20106;-85
2023/07/30 08:13:08;;;;;;;2.20;1.42;;;20.00;99.90;;;;;;5021871;28;20026;-85
2023/07/30 08:15:33;;;;;;;2.97;1.60;;;20.00;99.90;;;;;;5027368;28;20459;-86
2023/07/30 08:18:01;;;;;;;2.92;1.92;;;20.00;99.90;;;;;;5025251;28;20091;-85
2023/07/30 08:20:27;;;;;;;3.67;1.50;;;20.00;99.90;;;;;;5013695;28;20124;-86
2023/07/30 08:22:53;;;;;;;2.38;1.50;;;20.10;99.90;;;;;;5028075;28;20034;-86
2023/07/30 08:25:19;;;;;;;1.73;1.40;;;20.20;99.90;;;;;;4997269;28;20663;-86
2023/07/30 08:27:45;;;;;;;2.60;1.80;;;20.30;99.90;;;;;;5027581;28;20030;-86
2023/07/30 08:30:11;;;;;;;2.97;2.08;;;20.30;99.90;;;;;;5027073;28;20038;-82
2023/07/30 08:32:37;;;;;;;4.78;1.52;;;20.40;99.90;;;;;;5025069;28;20029;-85
2023/07/30 08:35:04;;;;;;;2.58;1.45;;;20.50;99.90;;;;;;5022566;28;20030;-87
2023/07/30 08:37:29;;;;;;;1.80;1.33;;;20.60;99.90;;;;;;5000920;28;20113;-86
2023/07/30 08:39:55;;;;;;;1.95;1.38;;;20.70;99.90;;;;;;4999931;28;20064;-86
2023/07/30 08:42:21;;;;;;;1.35;1.02;;;20.70;99.90;;;;;;5018304;28;20030;-86
2023/07/30 08:44:46;;;;;;;1.88;1.10;;;20.80;99.90;;;;;;5023885;28;20040;-87
2023/07/30 08:47:14;;;;;;;2.67;1.10;;;20.90;99.90;;;;;;5021400;28;20360;-85
2023/07/30 08:49:40;;;;;;;2.28;1.30;;;20.90;99.90;;;;;;5024210;28;20025;-84
2023/07/30 08:52:12;;;;;;;2.75;1.40;;;21.00;99.90;;;;;;5026235;28;20018;-84
2023/07/30 08:54:39;;;;;;;3.17;1.63;;;21.00;99.90;;;;;;5041760;28;20030;-81
2023/07/30 08:57:06;;;;;;;2.75;1.35;;;21.10;99.90;;;;;;5029168;28;20030;-84
2023/07/30 08:59:41;;;;;;;1.67;1.33;;;21.20;99.90;;;;;;5022034;28;20464;-86
2023/07/30 09:02:13;;;;;;;2.30;0.90;;;21.20;99.90;;;;;;5023661;28;20034;-80
2023/07/30 09:04:41;;;;;;;1.98;1.08;;;21.20;99.90;;;;;;5024316;28;20034;-83
2023/07/30 09:07:12;;;;;;;1.80;1.08;;;21.30;99.90;;;;;;5023591;28;20026;-82
2023/07/30 09:09:44;;;;;;;2.17;1.20;;;21.40;99.90;;;;;;5027413;28;20018;-84
2023/07/30 09:12:14;;;;;;;1.77;1.00;;;21.40;99.90;;;;;;5023673;28;20026;-83
2023/07/30 09:14:40;;;;;;;3.72;1.48;;;21.40;99.90;;;;;;5014086;28;20375;-86
2023/07/30 09:17:06;;;;;;;1.95;1.35;;;21.40;99.90;;;;;;5012923;28;20022;-86
2023/07/30 09:19:36;;;;;;;1.73;0.98;;;21.40;99.90;;;;;;5013143;28;20395;-86
2023/07/30 09:22:09;;;;;;;1.98;1.48;;;21.50;99.90;;;;;;5021986;28;20620;-86
2023/07/30 09:24:36;;;;;;;2.00;1.10;;;21.60;99.90;;;;;;5021220;28;20029;-85
2023/07/30 09:27:02;;;;;;;2.20;1.40;;;21.60;99.90;;;;;;5013819;28;20061;-83
2023/07/30 09:29:31;;;;;;;1.65;1.20;;;21.60;99.90;;;;;;5014340;28;20089;-85
2023/07/30 09:31:57;;;;;;;3.05;1.75;;;21.60;99.90;;;;;;5016176;28;20030;-89
2023/07/30 09:34:24;;;;;;;2.38;1.42;;;21.50;99.90;;;;;;5008777;28;20166;-85
2023/07/30 09:36:54;;;;;;;3.40;1.50;;;21.40;99.90;;;;;;5015434;28;20034;-86
2023/07/30 09:39:23;;;;;;;4.53;1.67;;;21.30;99.90;;;;;;5011489;28;20163;-86
2023/07/30 09:41:51;;;;;;;5.55;1.85;;;21.30;99.90;;;;;;5016870;28;20037;-85
2023/07/30 09:44:20;;;;;;;3.42;1.60;;;21.20;99.90;;;;;;5027101;28;20037;-84
2023/07/30 09:46:49;;;;;;;1.40;1.30;;;21.10;99.90;;;;;;5017334;28;20034;-84
2023/07/30 09:49:17;;;;;;;3.17;1.30;;;21.10;99.90;;;;;;5019894;28;20507;-84
2023/07/30 09:51:43;;;;;;;1.52;1.08;;;21.00;99.90;;;;;;5014946;28;20037;-84
2023/07/30 09:54:10;;;;;;;2.22;1.50;;;20.90;99.90;;;;;;5008436;28;20471;-84
2023/07/30 09:56:38;;;;;;;2.70;1.17;;;20.80;99.90;;;;;;5012581;28;20041;-83
2023/07/30 09:59:08;;;;;;;2.65;1.10;;;20.80;99.90;;;;;;5011767;28;20021;-82
2023/07/30 10:01:39;;;;;;;3.42;1.30;;;20.80;99.90;;;;;;5015553;28;20041;-83
2023/07/30 10:04:09;;;;;;;3.20;1.38;;;20.80;99.90;;;;;;5013702;28;20049;-84
2023/07/30 10:06:39;;;;;;;2.40;1.35;;;20.70;99.90;;;;;;5016402;28;20081;-83
2023/07/30 10:09:07;;;;;;;1.83;1.17;;;20.80;99.90;;;;;;5014941;28;20026;-84
2023/07/30 10:11:33;;;;;;;2.15;1.00;;;20.80;99.90;;;;;;5020091;28;20025;-83
2023/07/30 10:13:59;;;;;;;3.83;1.35;;;20.80;99.90;;;;;;5025510;28;20014;-82
2023/07/30 10:16:31;;;;;;;1.48;1.10;;;20.80;99.90;;;;;;5029516;28;20069;-83
2023/07/30 10:18:58;;;;;;;1.80;1.30;;;20.80;99.90;;;;;;5023896;28;20030;-84
2023/07/30 10:21:26;;;;;;;3.03;1.45;;;20.80;99.90;;;;;;5016749;28;20084;-83
2023/07/30 10:24:04;;;;;;;3.95;1.30;;;20.80;99.90;;;;;;5014130;28;20080;-84
2023/07/30 10:26:34;;;;;;;3.10;1.50;;;20.80;99.90;;;;;;5011381;28;20113;-83
2023/07/30 10:29:15;;;;;;;1.77;1.30;;;20.80;99.90;;;;;;5016669;28;20026;-83
2023/07/30 10:31:48;;;;;;;2.28;1.20;;;20.90;99.90;;;;;;5015055;28;20030;-83
2023/07/30 10:34:13;;;;;;;1.85;1.40;;;20.80;99.90;;;;;;5017044;28;20079;-83
2023/07/30 10:36:46;;;;;;;2.92;1.38;;;20.90;99.90;;;;;;5012591;28;20030;-83
2023/07/30 10:39:12;;;;;;;1.85;1.30;;;20.90;99.90;;;;;;5014237;28;20108;-83
2023/07/30 10:41:38;;;;;;;1.88;1.38;;;20.90;99.90;;;;;;5020527;28;20038;-83
2023/07/30 10:44:04;;;;;;;2.05;1.48;;;20.90;99.90;;;;;;5029957;28;20520;-82
2023/07/30 10:46:30;;;;;;;2.90;1.85;;;20.90;99.90;;;;;;5018862;28;20275;-83
2023/07/30 10:48:56;;;;;;;3.03;1.58;;;21.00;99.90;;;;;;5023072;28;20029;-84
2023/07/30 10:51:22;;;;;;;2.00;1.30;;;21.00;99.90;;;;;;5015245;28;20049;-83
2023/07/30 10:53:50;;;;;;;3.40;1.70;;;21.10;99.90;;;;;;5014171;28;20474;-83
2023/07/30 10:56:17;;;;;;;2.33;1.52;;;21.10;99.90;;;;;;5015584;28;20111;-83
2023/07/30 10:58:43;;;;;;;5.80;1.52;;;21.20;99.90;;;;;;5013168;28;20109;-83
2023/07/30 11:01:09;;;;;;;2.50;1.52;;;21.30;99.90;;;;;;5015629;28;20037;-83
2023/07/30 11:03:36;;;;;;;2.88;1.70;;;21.30;99.90;;;;;;5013611;28;20033;-83
2023/07/30 11:06:02;;;;;;;2.83;1.60;;;21.50;99.90;;;;;;5012799;28;20128;-83
2023/07/30 11:08:36;;;;;;;2.10;1.33;;;21.60;99.90;;;;;;5013469;28;20109;-83
2023/07/30 11:11:03;;;;;;;2.65;1.42;;;21.70;99.90;;;;;;5014213;28;20025;-84
2023/07/30 11:13:29;;;;;;;1.63;1.35;;;21.80;99.90;;;;;;5013737;28;20049;-83
2023/07/30 11:15:55;;;;;;;2.03;1.30;;;21.90;99.90;;;;;;5023262;28;20022;-83
2023/07/30 11:18:21;;;;;;;1.77;1.27;;;22.00;99.90;;;;;;5022623;28;20030;-83
2023/07/30 11:20:47;;;;;;;2.47;1.40;;;22.00;99.90;;;;;;4999392;28;20152;-79
2023/07/30 11:23:23;;;;;;;2.20;1.50;;;22.10;99.90;;;;;;5009758;28;20475;-80
2023/07/30 11:25:50;;;;;;;3.22;1.58;;;22.30;99.90;;;;;;5011083;28;20116;-81
2023/07/30 11:28:31;;;;;;;3.88;1.35;;;22.40;99.90;;;;;;5010009;28;20034;-80
2023/07/30 11:31:02;;;;;;;3.55;1.60;;;22.50;99.90;;;;;;5012448;28;20109;-79
2023/07/30 11:33:28;;;;;;;2.15;1.50;;;22.50;99.90;;;;;;5014396;28;20022;-80
2023/07/30 11:35:56;;;;;;;3.28;1.08;;;22.60;99.90;;;;;;5011331;28;20049;-81
2023/07/30 11:38:26;;;;;;;1.65;1.35;;;22.70;99.90;;;;;;5003961;28;20041;-80
2023/07/30 11:40:53;;;;;;;4.25;1.75;;;22.80;99.90;;;;;;5006359;28;20034;-79
2023/07/30 11:43:20;;;;;;;3.08;1.50;;;22.90;99.90;;;;;;5008414;28;20026;-79
2023/07/30 11:45:46;;;;;;;5.82;1.60;;;22.80;99.90;;;;;;5005185;28;20046;-79
2023/07/30 11:48:12;;;;;;;3.25;1.30;;;22.80;99.90;;;;;;5012934;28;20165;-80
2023/07/30 11:50:48;;;;;;;3.15;1.40;;;22.70;99.90;;;;;;5012991;28;20094;-79
2023/07/30 11:53:15;;;;;;;6.18;2.00;;;22.70;99.90;;;;;;5008376;28;20490;-80
2023/07/30 11:55:43;;;;;;;2.35;1.52;;;22.70;99.90;;;;;;5008485;28;20459;-80
2023/07/30 11:58:10;;;;;;;2.72;1.60;;;22.70;99.90;;;;;;5013907;28;20413;-78
2023/07/30 12:00:40;;;;;;;4.07;1.50;;;22.70;99.90;;;;;;5019710;28;20080;-78
2023/07/30 12:03:10;;;;;;;2.45;1.40;;;22.80;99.90;;;;;;5016281;28;20037;-79
2023/07/30 12:05:38;;;;;;;2.97;1.42;;;22.90;99.90;;;;;;5017898;28;20033;-79
2023/07/30 12:08:06;;;;;;;3.60;1.60;;;22.90;99.60;;;;;;5017323;28;20030;-80
2023/07/30 12:10:46;;;;;;;3.00;1.33;;;23.00;99.40;;;;;;5014793;28;20022;-78
2023/07/30 12:13:19;;;;;;;1.98;1.45;;;23.00;99.40;;;;;;5012342;28;20497;-79
2023/07/30 12:15:54;;;;;;;3.33;1.80;;;23.00;98.70;;;;;;5012634;28;20034;-81
2023/07/30 12:18:21;;;;;;;2.22;1.40;;;23.00;98.90;;;;;;5011293;28;20036;-83
2023/07/30 12:20:47;;;;;;;3.13;1.60;;;23.00;98.80;;;;;;5020562;28;20026;-83
2023/07/30 12:23:14;;;;;;;2.55;1.30;;;23.00;98.60;;;;;;5022535;28;20034;-84
2023/07/30 12:25:39;;;;;;;3.33;1.60;;;23.10;98.20;;;;;;5026829;28;20090;-84
2023/07/30 12:28:05;;;;;;;3.10;1.55;;;23.10;98.40;;;;;;5012240;28;20042;-83
2023/07/30 12:30:30;;;;;;;3.13;1.45;;;23.10;97.80;;;;;;5023579;28;20116;-84
2023/07/30 12:32:56;;;;;;;1.83;1.38;;;23.20;97.10;;;;;;5023921;28;20030;-84
2023/07/30 12:35:23;;;;;;;1.65;1.20;;;23.20;96.70;;;;;;5031906;28;20076;-86
2023/07/30 12:37:49;;;;;;;4.75;2.08;;;23.20;97.10;;;;;;5027383;28;20091;-83
2023/07/30 12:40:15;;;;;;;1.60;1.27;;;23.20;96.70;;;;;;5015666;28;20444;-84
2023/07/30 12:42:41;;;;;;;4.85;1.20;;;23.20;96.00;;;;;;5020853;28;20104;-83
2023/07/30 12:45:08;;;;;;;1.80;1.30;;;23.20;95.80;;;;;;5019791;28;20034;-84